sensor_id;sensor_type;location;lat;lon;timestamp;P1;durP1;ratioP1;P2;durP2;ratioP2
73456;SDS011;61691;53.072;6.582;2023-05-10T00:00:17;17.17;;;7.43;;
73456;SDS011;61691;53.072;6.582;2023-05-10T00:02:44;16.75;;;6.82;;
73456;SDS011;61691;53.072;6.582;2023-05-10T00:05:12;16.65;;;7.07;;
73456;SDS011;61691;53.072;6.582;2023-05-10T00:07:38;19.20;;;8.07;;
73456;SDS011;61691;53.072;6.582;2023-05-10T00:10:05;17.83;;;7.70;;
73456;SDS011;61691;53.072;6.582;2023-05-10T00:12:32;19.25;;;7.78;;
73456;SDS011;61691;53.072;6.582;2023-05-10T00:14:59;18.63;;;8.02;;
73456;SDS011;61691;53.072;6.582;2023-05-10T00:17:25;18.73;;;8.48;;
73456;SDS011;61691;53.072;6.582;2023-05-10T00:19:52;18.40;;;8.48;;
73456;SDS011;61691;53.072;6.582;2023-05-10T00:22:20;18.65;;;8.18;;
73456;SDS011;61691;53.072;6.582;2023-05-10T00:24:47;18.20;;;8.32;;
73456;SDS011;61691;53.072;6.582;2023-05-10T00:27:13;19.27;;;8.32;;
73456;SDS011;61691;53.072;6.582;2023-05-10T00:29:40;19.00;;;8.43;;
73456;SDS011;61691;53.072;6.582;2023-05-10T00:32:07;17.75;;;7.78;;
73456;SDS011;61691;53.072;6.582;2023-05-10T00:34:34;18.45;;;8.63;;
73456;SDS011;61691;53.072;6.582;2023-05-10T00:37:01;18.42;;;8.40;;
73456;SDS011;61691;53.072;6.582;2023-05-10T00:39:27;18.40;;;8.05;;
73456;SDS011;61691;53.072;6.582;2023-05-10T00:41:55;17.77;;;7.50;;
73456;SDS011;61691;53.072;6.582;2023-05-10T00:44:21;18.45;;;7.78;;
73456;SDS011;61691;53.072;6.582;2023-05-10T00:46:48;17.45;;;7.45;;
73456;SDS011;61691;53.072;6.582;2023-05-10T00:49:15;17.83;;;7.40;;
73456;SDS011;61691;53.072;6.582;2023-05-10T00:51:42;17.52;;;7.47;;
73456;SDS011;61691;53.072;6.582;2023-05-10T00:54:11;17.08;;;7.13;;
73456;SDS011;61691;53.072;6.582;2023-05-10T00:56:40;17.70;;;7.55;;
73456;SDS011;61691;53.072;6.582;2023-05-10T00:59:08;17.52;;;7.60;;
73456;SDS011;61691;53.072;6.582;2023-05-10T01:01:35;18.15;;;7.50;;
73456;SDS011;61691;53.072;6.582;2023-05-10T01:04:03;17.63;;;7.43;;
73456;SDS011;61691;53.072;6.582;2023-05-10T01:06:30;17.48;;;7.25;;
73456;SDS011;61691;53.072;6.582;2023-05-10T01:08:56;17.67;;;7.53;;
73456;SDS011;61691;53.072;6.582;2023-05-10T01:11:23;17.40;;;7.55;;
73456;SDS011;61691;53.072;6.582;2023-05-10T01:13:52;18.20;;;8.02;;
73456;SDS011;61691;53.072;6.582;2023-05-10T01:16:23;18.60;;;7.88;;
73456;SDS011;61691;53.072;6.582;2023-05-10T01:18:51;18.13;;;7.57;;
73456;SDS011;61691;53.072;6.582;2023-05-10T01:40:54;18.27;;;7.53;;
73456;SDS011;61691;53.072;6.582;2023-05-10T01:43:40;19.40;;;8.10;;
73456;SDS011;61691;53.072;6.582;2023-05-10T01:46:15;18.17;;;7.57;;
73456;SDS011;61691;53.072;6.582;2023-05-10T01:48:47;18.15;;;7.65;;
73456;SDS011;61691;53.072;6.582;2023-05-10T01:51:15;16.80;;;7.10;;
73456;SDS011;61691;53.072;6.582;2023-05-10T01:53:46;16.75;;;7.07;;
73456;SDS011;61691;53.072;6.582;2023-05-10T01:56:14;16.88;;;6.63;;
73456;SDS011;61691;53.072;6.582;2023-05-10T01:58:43;16.48;;;6.82;;
73456;SDS011;61691;53.072;6.582;2023-05-10T02:01:13;17.08;;;7.13;;
73456;SDS011;61691;53.072;6.582;2023-05-10T02:03:41;16.33;;;6.82;;
73456;SDS011;61691;53.072;6.582;2023-05-10T02:06:10;17.52;;;6.90;;
73456;SDS011;61691;53.072;6.582;2023-05-10T02:08:39;17.58;;;7.72;;
73456;SDS011;61691;53.072;6.582;2023-05-10T02:11:06;17.38;;;7.32;;
73456;SDS011;61691;53.072;6.582;2023-05-10T02:13:35;17.63;;;7.50;;
73456;SDS011;61691;53.072;6.582;2023-05-10T02:16:05;18.58;;;7.72;;
73456;SDS011;61691;53.072;6.582;2023-05-10T02:18:34;18.48;;;7.97;;
73456;SDS011;61691;53.072;6.582;2023-05-10T02:21:02;18.88;;;8.57;;
73456;SDS011;61691;53.072;6.582;2023-05-10T02:23:30;18.92;;;8.75;;
73456;SDS011;61691;53.072;6.582;2023-05-10T02:25:58;18.70;;;8.32;;
73456;SDS011;61691;53.072;6.582;2023-05-10T02:28:26;17.80;;;8.02;;
73456;SDS011;61691;53.072;6.582;2023-05-10T02:30:54;18.42;;;8.40;;
73456;SDS011;61691;53.072;6.582;2023-05-10T02:33:22;18.85;;;8.35;;
73456;SDS011;61691;53.072;6.582;2023-05-10T02:35:50;19.50;;;8.50;;
73456;SDS011;61691;53.072;6.582;2023-05-10T02:38:17;18.65;;;8.48;;
73456;SDS011;61691;53.072;6.582;2023-05-10T02:40:46;20.05;;;9.30;;
73456;SDS011;61691;53.072;6.582;2023-05-10T02:43:14;20.23;;;8.85;;
73456;SDS011;61691;53.072;6.582;2023-05-10T02:45:43;19.02;;;8.13;;
73456;SDS011;61691;53.072;6.582;2023-05-10T02:48:13;19.73;;;9.25;;
73456;SDS011;61691;53.072;6.582;2023-05-10T02:50:42;21.85;;;9.38;;
73456;SDS011;61691;53.072;6.582;2023-05-10T02:53:11;21.27;;;9.48;;
73456;SDS011;61691;53.072;6.582;2023-05-10T02:55:45;21.48;;;9.63;;
73456;SDS011;61691;53.072;6.582;2023-05-10T02:58:17;22.00;;;9.52;;
73456;SDS011;61691;53.072;6.582;2023-05-10T03:00:45;22.77;;;10.45;;
73456;SDS011;61691;53.072;6.582;2023-05-10T03:03:12;23.45;;;10.45;;
73456;SDS011;61691;53.072;6.582;2023-05-10T03:05:39;23.77;;;10.85;;
73456;SDS011;61691;53.072;6.582;2023-05-10T03:08:06;22.73;;;11.07;;
73456;SDS011;61691;53.072;6.582;2023-05-10T03:10:33;24.67;;;11.85;;
73456;SDS011;61691;53.072;6.582;2023-05-10T03:13:44;24.63;;;11.98;;
73456;SDS011;61691;53.072;6.582;2023-05-10T03:16:29;28.63;;;12.30;;
73456;SDS011;61691;53.072;6.582;2023-05-10T03:19:12;27.15;;;11.68;;
73456;SDS011;61691;53.072;6.582;2023-05-10T03:21:45;26.35;;;12.02;;
73456;SDS011;61691;53.072;6.582;2023-05-10T03:24:16;28.20;;;12.38;;
73456;SDS011;61691;53.072;6.582;2023-05-10T03:26:46;26.20;;;12.75;;
73456;SDS011;61691;53.072;6.582;2023-05-10T03:29:14;25.75;;;12.52;;
73456;SDS011;61691;53.072;6.582;2023-05-10T03:31:42;26.33;;;12.00;;
73456;SDS011;61691;53.072;6.582;2023-05-10T03:34:09;24.25;;;11.50;;
73456;SDS011;61691;53.072;6.582;2023-05-10T03:36:35;24.40;;;11.88;;
73456;SDS011;61691;53.072;6.582;2023-05-10T03:39:02;26.00;;;12.20;;
73456;SDS011;61691;53.072;6.582;2023-05-10T03:41:29;25.13;;;12.32;;
73456;SDS011;61691;53.072;6.582;2023-05-10T03:43:55;26.33;;;12.88;;
73456;SDS011;61691;53.072;6.582;2023-05-10T03:46:22;23.35;;;11.70;;
73456;SDS011;61691;53.072;6.582;2023-05-10T03:48:49;27.20;;;13.23;;
73456;SDS011;61691;53.072;6.582;2023-05-10T03:51:15;24.80;;;11.75;;
73456;SDS011;61691;53.072;6.582;2023-05-10T03:53:42;25.85;;;12.10;;
73456;SDS011;61691;53.072;6.582;2023-05-10T03:56:09;23.40;;;11.68;;
73456;SDS011;61691;53.072;6.582;2023-05-10T03:58:35;23.65;;;11.90;;
73456;SDS011;61691;53.072;6.582;2023-05-10T04:01:02;23.50;;;10.63;;
73456;SDS011;61691;53.072;6.582;2023-05-10T04:03:29;23.73;;;11.13;;
73456;SDS011;61691;53.072;6.582;2023-05-10T04:05:59;22.58;;;10.40;;
73456;SDS011;61691;53.072;6.582;2023-05-10T04:08:28;20.58;;;8.90;;
73456;SDS011;61691;53.072;6.582;2023-05-10T04:11:04;20.48;;;9.10;;
73456;SDS011;61691;53.072;6.582;2023-05-10T04:13:34;21.50;;;9.35;;
73456;SDS011;61691;53.072;6.582;2023-05-10T04:16:01;21.48;;;9.70;;
73456;SDS011;61691;53.072;6.582;2023-05-10T04:18:28;21.20;;;8.88;;
73456;SDS011;61691;53.072;6.582;2023-05-10T04:20:55;19.90;;;8.82;;
73456;SDS011;61691;53.072;6.582;2023-05-10T04:23:21;20.33;;;9.27;;
73456;SDS011;61691;53.072;6.582;2023-05-10T04:25:48;20.15;;;8.70;;
73456;SDS011;61691;53.072;6.582;2023-05-10T04:28:15;21.73;;;9.30;;
73456;SDS011;61691;53.072;6.582;2023-05-10T04:30:42;19.75;;;8.55;;
73456;SDS011;61691;53.072;6.582;2023-05-10T04:33:09;18.92;;;7.50;;
73456;SDS011;61691;53.072;6.582;2023-05-10T04:35:35;19.67;;;8.00;;
73456;SDS011;61691;53.072;6.582;2023-05-10T04:38:02;20.25;;;8.07;;
73456;SDS011;61691;53.072;6.582;2023-05-10T04:40:29;19.85;;;8.68;;
73456;SDS011;61691;53.072;6.582;2023-05-10T04:42:56;19.92;;;8.32;;
73456;SDS011;61691;53.072;6.582;2023-05-10T04:45:22;18.80;;;8.27;;
73456;SDS011;61691;53.072;6.582;2023-05-10T04:47:49;18.70;;;8.43;;
73456;SDS011;61691;53.072;6.582;2023-05-10T04:50:16;21.92;;;9.60;;
73456;SDS011;61691;53.072;6.582;2023-05-10T04:52:44;18.42;;;8.25;;
73456;SDS011;61691;53.072;6.582;2023-05-10T04:55:11;20.77;;;8.23;;
73456;SDS011;61691;53.072;6.582;2023-05-10T04:57:37;19.02;;;7.45;;
73456;SDS011;61691;53.072;6.582;2023-05-10T05:00:04;17.45;;;7.30;;
73456;SDS011;61691;53.072;6.582;2023-05-10T05:02:31;17.30;;;7.22;;
73456;SDS011;61691;53.072;6.582;2023-05-10T05:04:58;18.63;;;7.35;;
73456;SDS011;61691;53.072;6.582;2023-05-10T05:07:25;17.42;;;6.95;;
73456;SDS011;61691;53.072;6.582;2023-05-10T05:09:52;16.67;;;6.93;;
73456;SDS011;61691;53.072;6.582;2023-05-10T05:12:18;17.23;;;6.90;;
73456;SDS011;61691;53.072;6.582;2023-05-10T05:14:45;18.08;;;6.40;;
73456;SDS011;61691;53.072;6.582;2023-05-10T05:17:12;16.73;;;5.93;;
73456;SDS011;61691;53.072;6.582;2023-05-10T05:19:38;16.13;;;6.00;;
73456;SDS011;61691;53.072;6.582;2023-05-10T05:22:06;17.50;;;6.65;;
73456;SDS011;61691;53.072;6.582;2023-05-10T05:24:34;16.80;;;5.78;;
73456;SDS011;61691;53.072;6.582;2023-05-10T05:27:02;15.82;;;5.03;;
73456;SDS011;61691;53.072;6.582;2023-05-10T05:29:29;14.93;;;4.88;;
73456;SDS011;61691;53.072;6.582;2023-05-10T05:31:56;14.70;;;4.65;;
73456;SDS011;61691;53.072;6.582;2023-05-10T05:34:23;15.73;;;4.80;;
73456;SDS011;61691;53.072;6.582;2023-05-10T05:36:50;15.02;;;4.28;;
73456;SDS011;61691;53.072;6.582;2023-05-10T05:39:17;14.63;;;4.75;;
73456;SDS011;61691;53.072;6.582;2023-05-10T05:41:43;15.00;;;4.30;;
73456;SDS011;61691;53.072;6.582;2023-05-10T05:44:10;14.73;;;4.35;;
73456;SDS011;61691;53.072;6.582;2023-05-10T05:46:37;14.52;;;4.38;;
73456;SDS011;61691;53.072;6.582;2023-05-10T05:49:04;15.07;;;4.60;;
73456;SDS011;61691;53.072;6.582;2023-05-10T05:51:31;13.73;;;4.18;;
73456;SDS011;61691;53.072;6.582;2023-05-10T05:53:57;14.52;;;4.40;;
73456;SDS011;61691;53.072;6.582;2023-05-10T05:56:24;13.52;;;4.10;;
73456;SDS011;61691;53.072;6.582;2023-05-10T05:58:51;13.68;;;4.05;;
73456;SDS011;61691;53.072;6.582;2023-05-10T06:01:18;13.40;;;3.60;;
73456;SDS011;61691;53.072;6.582;2023-05-10T06:03:44;13.40;;;3.38;;
73456;SDS011;61691;53.072;6.582;2023-05-10T06:06:11;10.30;;;2.80;;
73456;SDS011;61691;53.072;6.582;2023-05-10T06:08:38;10.70;;;2.40;;
73456;SDS011;61691;53.072;6.582;2023-05-10T06:11:05;8.55;;;2.50;;
73456;SDS011;61691;53.072;6.582;2023-05-10T06:13:32;6.97;;;2.13;;
73456;SDS011;61691;53.072;6.582;2023-05-10T06:15:59;5.88;;;1.70;;
73456;SDS011;61691;53.072;6.582;2023-05-10T06:18:26;5.90;;;1.50;;
73456;SDS011;61691;53.072;6.582;2023-05-10T06:20:53;3.05;;;1.48;;
73456;SDS011;61691;53.072;6.582;2023-05-10T06:23:20;3.47;;;1.52;;
73456;SDS011;61691;53.072;6.582;2023-05-10T06:25:47;4.88;;;1.52;;
73456;SDS011;61691;53.072;6.582;2023-05-10T06:28:13;3.60;;;1.33;;
73456;SDS011;61691;53.072;6.582;2023-05-10T06:30:40;5.18;;;1.60;;
73456;SDS011;61691;53.072;6.582;2023-05-10T06:33:07;3.95;;;1.50;;
73456;SDS011;61691;53.072;6.582;2023-05-10T06:35:34;5.30;;;1.35;;
73456;SDS011;61691;53.072;6.582;2023-05-10T06:38:01;9.20;;;1.88;;
73456;SDS011;61691;53.072;6.582;2023-05-10T06:40:27;3.92;;;1.55;;
73456;SDS011;61691;53.072;6.582;2023-05-10T06:42:54;25.58;;;3.40;;
73456;SDS011;61691;53.072;6.582;2023-05-10T06:45:21;7.53;;;1.70;;
73456;SDS011;61691;53.072;6.582;2023-05-10T06:47:48;2.83;;;1.30;;
73456;SDS011;61691;53.072;6.582;2023-05-10T06:50:15;2.10;;;1.13;;
73456;SDS011;61691;53.072;6.582;2023-05-10T06:52:41;2.50;;;1.20;;
73456;SDS011;61691;53.072;6.582;2023-05-10T06:55:09;3.60;;;1.40;;
73456;SDS011;61691;53.072;6.582;2023-05-10T06:57:36;2.38;;;1.10;;
73456;SDS011;61691;53.072;6.582;2023-05-10T07:00:03;3.55;;;1.27;;
73456;SDS011;61691;53.072;6.582;2023-05-10T07:02:31;1.30;;;1.10;;
73456;SDS011;61691;53.072;6.582;2023-05-10T07:04:58;1.30;;;1.10;;
73456;SDS011;61691;53.072;6.582;2023-05-10T07:09:55;4.40;;;1.40;;
73456;SDS011;61691;53.072;6.582;2023-05-10T07:12:23;1.60;;;1.20;;
73456;SDS011;61691;53.072;6.582;2023-05-10T07:14:50;2.85;;;1.00;;
73456;SDS011;61691;53.072;6.582;2023-05-10T07:17:17;1.85;;;0.95;;
73456;SDS011;61691;53.072;6.582;2023-05-10T07:19:43;1.17;;;0.80;;
73456;SDS011;61691;53.072;6.582;2023-05-10T07:22:10;1.98;;;0.80;;
73456;SDS011;61691;53.072;6.582;2023-05-10T07:24:37;0.63;;;0.63;;
73456;SDS011;61691;53.072;6.582;2023-05-10T07:27:04;0.70;;;0.70;;
73456;SDS011;61691;53.072;6.582;2023-05-10T07:29:31;1.10;;;0.80;;
73456;SDS011;61691;53.072;6.582;2023-05-10T07:31:57;1.30;;;0.88;;
73456;SDS011;61691;53.072;6.582;2023-05-10T07:34:25;1.65;;;1.00;;
73456;SDS011;61691;53.072;6.582;2023-05-10T07:36:52;6.38;;;1.17;;
73456;SDS011;61691;53.072;6.582;2023-05-10T07:39:19;3.13;;;1.27;;
73456;SDS011;61691;53.072;6.582;2023-05-10T07:41:53;3.90;;;1.30;;
73456;SDS011;61691;53.072;6.582;2023-05-10T07:44:21;4.55;;;1.80;;
73456;SDS011;61691;53.072;6.582;2023-05-10T07:46:48;5.97;;;2.10;;
73456;SDS011;61691;53.072;6.582;2023-05-10T07:49:14;9.10;;;2.53;;
73456;SDS011;61691;53.072;6.582;2023-05-10T07:51:41;9.25;;;2.70;;
73456;SDS011;61691;53.072;6.582;2023-05-10T07:54:09;10.65;;;3.15;;
73456;SDS011;61691;53.072;6.582;2023-05-10T07:56:35;11.80;;;3.15;;
73456;SDS011;61691;53.072;6.582;2023-05-10T07:59:02;12.02;;;3.28;;
73456;SDS011;61691;53.072;6.582;2023-05-10T08:01:31;11.23;;;3.20;;
73456;SDS011;61691;53.072;6.582;2023-05-10T08:03:58;11.95;;;3.67;;
73456;SDS011;61691;53.072;6.582;2023-05-10T08:06:26;11.73;;;3.28;;
73456;SDS011;61691;53.072;6.582;2023-05-10T08:08:54;11.75;;;3.30;;
73456;SDS011;61691;53.072;6.582;2023-05-10T08:11:21;10.15;;;3.03;;
73456;SDS011;61691;53.072;6.582;2023-05-10T08:13:49;12.32;;;3.53;;
73456;SDS011;61691;53.072;6.582;2023-05-10T08:16:17;12.10;;;3.35;;
73456;SDS011;61691;53.072;6.582;2023-05-10T08:18:44;12.80;;;3.45;;
73456;SDS011;61691;53.072;6.582;2023-05-10T08:21:13;12.82;;;3.50;;
73456;SDS011;61691;53.072;6.582;2023-05-10T08:23:40;13.25;;;3.42;;
73456;SDS011;61691;53.072;6.582;2023-05-10T08:26:07;14.15;;;3.80;;
73456;SDS011;61691;53.072;6.582;2023-05-10T08:28:34;13.95;;;4.30;;
73456;SDS011;61691;53.072;6.582;2023-05-10T08:31:01;15.30;;;4.10;;
73456;SDS011;61691;53.072;6.582;2023-05-10T08:33:28;12.68;;;3.90;;
73456;SDS011;61691;53.072;6.582;2023-05-10T08:35:55;12.98;;;3.88;;
73456;SDS011;61691;53.072;6.582;2023-05-10T08:38:21;13.75;;;4.38;;
73456;SDS011;61691;53.072;6.582;2023-05-10T08:40:48;13.35;;;3.53;;
73456;SDS011;61691;53.072;6.582;2023-05-10T08:43:17;13.93;;;3.75;;
73456;SDS011;61691;53.072;6.582;2023-05-10T08:45:44;13.10;;;3.45;;
73456;SDS011;61691;53.072;6.582;2023-05-10T08:48:13;11.80;;;3.25;;
73456;SDS011;61691;53.072;6.582;2023-05-10T08:50:40;12.30;;;3.25;;
73456;SDS011;61691;53.072;6.582;2023-05-10T08:53:11;14.05;;;3.40;;
73456;SDS011;61691;53.072;6.582;2023-05-10T08:55:39;12.70;;;3.42;;
73456;SDS011;61691;53.072;6.582;2023-05-10T08:58:09;14.00;;;3.35;;
73456;SDS011;61691;53.072;6.582;2023-05-10T09:00:36;13.95;;;3.55;;
73456;SDS011;61691;53.072;6.582;2023-05-10T09:03:04;12.20;;;3.63;;
73456;SDS011;61691;53.072;6.582;2023-05-10T09:05:32;13.15;;;3.60;;
73456;SDS011;61691;53.072;6.582;2023-05-10T09:07:59;13.98;;;3.55;;
73456;SDS011;61691;53.072;6.582;2023-05-10T09:10:27;13.32;;;3.78;;
73456;SDS011;61691;53.072;6.582;2023-05-10T09:12:56;13.18;;;3.60;;
73456;SDS011;61691;53.072;6.582;2023-05-10T09:15:24;13.65;;;3.83;;
73456;SDS011;61691;53.072;6.582;2023-05-10T09:17:52;13.88;;;3.97;;
73456;SDS011;61691;53.072;6.582;2023-05-10T09:20:19;14.70;;;3.88;;
73456;SDS011;61691;53.072;6.582;2023-05-10T09:22:46;14.15;;;4.13;;
73456;SDS011;61691;53.072;6.582;2023-05-10T09:25:13;14.27;;;3.97;;
73456;SDS011;61691;53.072;6.582;2023-05-10T09:27:45;12.40;;;3.75;;
73456;SDS011;61691;53.072;6.582;2023-05-10T09:30:17;13.52;;;3.67;;
73456;SDS011;61691;53.072;6.582;2023-05-10T09:32:50;13.32;;;3.83;;
73456;SDS011;61691;53.072;6.582;2023-05-10T09:35:18;15.10;;;4.20;;
73456;SDS011;61691;53.072;6.582;2023-05-10T09:37:48;15.43;;;4.20;;
73456;SDS011;61691;53.072;6.582;2023-05-10T09:40:17;14.63;;;4.07;;
73456;SDS011;61691;53.072;6.582;2023-05-10T09:42:52;15.02;;;4.43;;
73456;SDS011;61691;53.072;6.582;2023-05-10T09:45:33;14.25;;;4.32;;
73456;SDS011;61691;53.072;6.582;2023-05-10T09:48:04;15.95;;;4.68;;
73456;SDS011;61691;53.072;6.582;2023-05-10T09:50:31;13.90;;;4.18;;
73456;SDS011;61691;53.072;6.582;2023-05-10T09:53:01;13.98;;;3.60;;
73456;SDS011;61691;53.072;6.582;2023-05-10T09:58:06;13.07;;;3.70;;
73456;SDS011;61691;53.072;6.582;2023-05-10T10:03:04;14.80;;;4.15;;
73456;SDS011;61691;53.072;6.582;2023-05-10T10:05:32;13.50;;;3.67;;
73456;SDS011;61691;53.072;6.582;2023-05-10T10:08:02;16.77;;;3.83;;
73456;SDS011;61691;53.072;6.582;2023-05-10T10:10:31;14.32;;;4.05;;
73456;SDS011;61691;53.072;6.582;2023-05-10T10:12:59;14.52;;;4.30;;
73456;SDS011;61691;53.072;6.582;2023-05-10T10:15:26;14.27;;;3.97;;
73456;SDS011;61691;53.072;6.582;2023-05-10T10:17:53;16.30;;;4.18;;
73456;SDS011;61691;53.072;6.582;2023-05-10T10:20:21;14.55;;;3.78;;
73456;SDS011;61691;53.072;6.582;2023-05-10T10:22:48;13.77;;;3.97;;
73456;SDS011;61691;53.072;6.582;2023-05-10T10:25:16;15.93;;;4.40;;
73456;SDS011;61691;53.072;6.582;2023-05-10T10:35:42;15.73;;;4.38;;
73456;SDS011;61691;53.072;6.582;2023-05-10T10:38:11;15.77;;;4.80;;
73456;SDS011;61691;53.072;6.582;2023-05-10T10:40:39;15.48;;;4.85;;
73456;SDS011;61691;53.072;6.582;2023-05-10T10:43:25;17.00;;;5.38;;
73456;SDS011;61691;53.072;6.582;2023-05-10T10:46:13;17.50;;;6.78;;
73456;SDS011;61691;53.072;6.582;2023-05-10T10:48:41;16.70;;;5.57;;
73456;SDS011;61691;53.072;6.582;2023-05-10T10:51:14;15.45;;;4.90;;
73456;SDS011;61691;53.072;6.582;2023-05-10T10:53:41;15.52;;;5.38;;
73456;SDS011;61691;53.072;6.582;2023-05-10T10:56:11;15.70;;;5.28;;
73456;SDS011;61691;53.072;6.582;2023-05-10T10:58:49;16.45;;;5.28;;
73456;SDS011;61691;53.072;6.582;2023-05-10T11:01:20;15.10;;;4.75;;
73456;SDS011;61691;53.072;6.582;2023-05-10T11:06:37;16.27;;;5.00;;
73456;SDS011;61691;53.072;6.582;2023-05-10T11:09:07;15.80;;;4.82;;
73456;SDS011;61691;53.072;6.582;2023-05-10T11:14:06;15.93;;;4.70;;
73456;SDS011;61691;53.072;6.582;2023-05-10T11:16:42;14.75;;;4.25;;
73456;SDS011;61691;53.072;6.582;2023-05-10T11:19:11;16.25;;;4.28;;
73456;SDS011;61691;53.072;6.582;2023-05-10T11:24:37;14.98;;;4.40;;
73456;SDS011;61691;53.072;6.582;2023-05-10T11:27:04;16.08;;;5.03;;
73456;SDS011;61691;53.072;6.582;2023-05-10T11:29:31;15.55;;;4.57;;
73456;SDS011;61691;53.072;6.582;2023-05-10T11:31:58;15.73;;;4.57;;
73456;SDS011;61691;53.072;6.582;2023-05-10T11:36:54;15.18;;;4.60;;
73456;SDS011;61691;53.072;6.582;2023-05-10T11:39:25;15.07;;;4.22;;
73456;SDS011;61691;53.072;6.582;2023-05-10T11:41:53;14.63;;;4.05;;
73456;SDS011;61691;53.072;6.582;2023-05-10T11:44:20;13.48;;;3.92;;
73456;SDS011;61691;53.072;6.582;2023-05-10T11:46:47;14.40;;;4.30;;
73456;SDS011;61691;53.072;6.582;2023-05-10T11:49:15;14.68;;;4.32;;
73456;SDS011;61691;53.072;6.582;2023-05-10T11:51:42;14.85;;;4.40;;
73456;SDS011;61691;53.072;6.582;2023-05-10T11:54:10;14.38;;;4.00;;
73456;SDS011;61691;53.072;6.582;2023-05-10T11:56:38;15.63;;;4.90;;
73456;SDS011;61691;53.072;6.582;2023-05-10T11:59:06;16.45;;;5.20;;
73456;SDS011;61691;53.072;6.582;2023-05-10T12:01:34;18.02;;;5.60;;
73456;SDS011;61691;53.072;6.582;2023-05-10T12:04:01;16.10;;;5.18;;
73456;SDS011;61691;53.072;6.582;2023-05-10T12:06:32;17.17;;;5.80;;
73456;SDS011;61691;53.072;6.582;2023-05-10T12:09:09;16.33;;;5.07;;
73456;SDS011;61691;53.072;6.582;2023-05-10T12:11:37;17.88;;;5.70;;
73456;SDS011;61691;53.072;6.582;2023-05-10T12:14:09;16.95;;;5.35;;
73456;SDS011;61691;53.072;6.582;2023-05-10T12:16:36;21.10;;;5.95;;
73456;SDS011;61691;53.072;6.582;2023-05-10T12:19:03;18.20;;;5.57;;
73456;SDS011;61691;53.072;6.582;2023-05-10T12:21:32;17.23;;;5.80;;
73456;SDS011;61691;53.072;6.582;2023-05-10T12:23:59;17.98;;;6.40;;
73456;SDS011;61691;53.072;6.582;2023-05-10T12:26:28;18.45;;;6.70;;
73456;SDS011;61691;53.072;6.582;2023-05-10T12:29:11;16.75;;;5.30;;
73456;SDS011;61691;53.072;6.582;2023-05-10T12:31:54;18.65;;;6.13;;
73456;SDS011;61691;53.072;6.582;2023-05-10T12:34:23;18.08;;;6.13;;
73456;SDS011;61691;53.072;6.582;2023-05-10T12:37:08;17.95;;;6.57;;
73456;SDS011;61691;53.072;6.582;2023-05-10T12:39:41;16.73;;;6.20;;
73456;SDS011;61691;53.072;6.582;2023-05-10T12:42:09;16.85;;;6.13;;
73456;SDS011;61691;53.072;6.582;2023-05-10T12:44:37;18.08;;;5.70;;
73456;SDS011;61691;53.072;6.582;2023-05-10T12:47:04;16.98;;;6.53;;
73456;SDS011;61691;53.072;6.582;2023-05-10T12:49:32;17.15;;;6.72;;
73456;SDS011;61691;53.072;6.582;2023-05-10T12:51:59;17.77;;;6.35;;
73456;SDS011;61691;53.072;6.582;2023-05-10T12:54:25;17.33;;;6.20;;
73456;SDS011;61691;53.072;6.582;2023-05-10T12:56:52;15.82;;;5.75;;
73456;SDS011;61691;53.072;6.582;2023-05-10T12:59:18;17.60;;;5.82;;
73456;SDS011;61691;53.072;6.582;2023-05-10T13:01:45;16.73;;;5.50;;
73456;SDS011;61691;53.072;6.582;2023-05-10T13:04:12;16.17;;;5.70;;
73456;SDS011;61691;53.072;6.582;2023-05-10T13:06:39;16.63;;;5.43;;
73456;SDS011;61691;53.072;6.582;2023-05-10T13:09:05;17.33;;;5.70;;
73456;SDS011;61691;53.072;6.582;2023-05-10T13:11:32;16.27;;;5.72;;
73456;SDS011;61691;53.072;6.582;2023-05-10T13:13:59;16.17;;;5.13;;
73456;SDS011;61691;53.072;6.582;2023-05-10T13:16:25;16.38;;;5.32;;
73456;SDS011;61691;53.072;6.582;2023-05-10T13:18:53;16.13;;;5.40;;
73456;SDS011;61691;53.072;6.582;2023-05-10T13:21:19;16.63;;;5.47;;
73456;SDS011;61691;53.072;6.582;2023-05-10T13:23:46;17.00;;;5.47;;
73456;SDS011;61691;53.072;6.582;2023-05-10T13:26:13;15.73;;;5.35;;
73456;SDS011;61691;53.072;6.582;2023-05-10T13:28:39;17.52;;;5.35;;
73456;SDS011;61691;53.072;6.582;2023-05-10T13:31:07;16.20;;;5.07;;
73456;SDS011;61691;53.072;6.582;2023-05-10T13:33:34;15.43;;;5.07;;
73456;SDS011;61691;53.072;6.582;2023-05-10T13:36:00;15.52;;;4.85;;
73456;SDS011;61691;53.072;6.582;2023-05-10T13:38:27;16.38;;;5.47;;
73456;SDS011;61691;53.072;6.582;2023-05-10T13:40:54;17.15;;;5.20;;
73456;SDS011;61691;53.072;6.582;2023-05-10T13:43:20;16.83;;;5.18;;
73456;SDS011;61691;53.072;6.582;2023-05-10T13:45:47;17.17;;;6.07;;
73456;SDS011;61691;53.072;6.582;2023-05-10T13:48:14;16.83;;;5.60;;
73456;SDS011;61691;53.072;6.582;2023-05-10T13:50:41;18.48;;;6.72;;
73456;SDS011;61691;53.072;6.582;2023-05-10T13:53:08;16.20;;;5.38;;
73456;SDS011;61691;53.072;6.582;2023-05-10T13:55:34;19.33;;;5.38;;
73456;SDS011;61691;53.072;6.582;2023-05-10T13:58:02;16.10;;;4.95;;
73456;SDS011;61691;53.072;6.582;2023-05-10T14:00:28;17.05;;;5.32;;
73456;SDS011;61691;53.072;6.582;2023-05-10T14:02:55;16.00;;;5.28;;
73456;SDS011;61691;53.072;6.582;2023-05-10T14:05:22;17.38;;;5.38;;
73456;SDS011;61691;53.072;6.582;2023-05-10T14:07:52;17.15;;;5.35;;
73456;SDS011;61691;53.072;6.582;2023-05-10T14:10:20;16.42;;;5.10;;
73456;SDS011;61691;53.072;6.582;2023-05-10T14:12:46;15.25;;;4.72;;
73456;SDS011;61691;53.072;6.582;2023-05-10T14:15:13;16.50;;;5.10;;
73456;SDS011;61691;53.072;6.582;2023-05-10T14:17:40;16.88;;;5.30;;
73456;SDS011;61691;53.072;6.582;2023-05-10T14:20:07;16.40;;;5.05;;
73456;SDS011;61691;53.072;6.582;2023-05-10T14:22:34;15.55;;;4.93;;
73456;SDS011;61691;53.072;6.582;2023-05-10T14:25:01;18.20;;;5.35;;
73456;SDS011;61691;53.072;6.582;2023-05-10T14:27:28;17.08;;;5.13;;
73456;SDS011;61691;53.072;6.582;2023-05-10T14:29:56;16.65;;;5.20;;
73456;SDS011;61691;53.072;6.582;2023-05-10T14:32:22;15.38;;;5.22;;
73456;SDS011;61691;53.072;6.582;2023-05-10T14:34:49;16.35;;;5.53;;
73456;SDS011;61691;53.072;6.582;2023-05-10T14:37:16;16.52;;;5.55;;
73456;SDS011;61691;53.072;6.582;2023-05-10T14:39:42;18.50;;;6.43;;
73456;SDS011;61691;53.072;6.582;2023-05-10T14:42:09;15.68;;;5.80;;
73456;SDS011;61691;53.072;6.582;2023-05-10T14:44:36;17.77;;;6.45;;
73456;SDS011;61691;53.072;6.582;2023-05-10T14:47:03;17.48;;;6.70;;
73456;SDS011;61691;53.072;6.582;2023-05-10T14:49:30;16.15;;;5.70;;
73456;SDS011;61691;53.072;6.582;2023-05-10T14:51:57;16.50;;;6.32;;
73456;SDS011;61691;53.072;6.582;2023-05-10T14:54:23;18.40;;;5.93;;
73456;SDS011;61691;53.072;6.582;2023-05-10T14:56:50;17.35;;;6.40;;
73456;SDS011;61691;53.072;6.582;2023-05-10T14:59:17;17.08;;;6.10;;
73456;SDS011;61691;53.072;6.582;2023-05-10T15:01:45;17.85;;;5.82;;
73456;SDS011;61691;53.072;6.582;2023-05-10T15:04:12;18.02;;;6.78;;
73456;SDS011;61691;53.072;6.582;2023-05-10T15:06:40;18.67;;;7.15;;
73456;SDS011;61691;53.072;6.582;2023-05-10T15:09:08;19.08;;;6.03;;
73456;SDS011;61691;53.072;6.582;2023-05-10T15:11:35;16.70;;;5.80;;
73456;SDS011;61691;53.072;6.582;2023-05-10T15:14:02;15.90;;;5.18;;
73456;SDS011;61691;53.072;6.582;2023-05-10T15:16:29;16.73;;;5.82;;
73456;SDS011;61691;53.072;6.582;2023-05-10T15:18:58;17.23;;;5.60;;
73456;SDS011;61691;53.072;6.582;2023-05-10T15:21:24;16.70;;;5.93;;
73456;SDS011;61691;53.072;6.582;2023-05-10T15:23:51;17.52;;;5.93;;
73456;SDS011;61691;53.072;6.582;2023-05-10T15:26:18;16.42;;;5.60;;